createdAt,value
2018-07-11T00:00:59.621Z,13.40
2018-07-11T00:03:32.930Z,13.34
2018-07-11T00:06:00.621Z,13.42
2018-07-11T00:08:28.313Z,13.43
2018-07-11T00:10:56.004Z,13.40
2018-07-11T00:13:23.710Z,13.42
2018-07-11T00:15:51.397Z,13.41
2018-07-11T00:18:19.210Z,13.37
2018-07-11T00:20:46.953Z,13.26
2018-07-11T00:23:14.970Z,13.16
2018-07-11T00:25:42.765Z,13.04
2018-07-11T00:28:10.615Z,13.03
2018-07-11T00:30:38.353Z,12.96
2018-07-11T00:33:06.092Z,12.87
2018-07-11T00:35:33.835Z,12.82
2018-07-11T00:38:01.611Z,12.77
2018-07-11T00:40:29.346Z,12.76
2018-07-11T00:42:57.114Z,12.68
2018-07-11T00:45:24.854Z,12.67
2018-07-11T00:47:52.591Z,12.71
2018-07-11T00:50:20.454Z,12.75
2018-07-11T00:52:48.477Z,12.78
2018-07-11T00:55:16.214Z,12.78
2018-07-11T00:57:43.970Z,12.79
2018-07-11T01:00:11.713Z,12.73
2018-07-11T01:02:39.509Z,12.71
2018-07-11T01:05:07.255Z,12.70
2018-07-11T01:07:35.015Z,12.51
2018-07-11T01:10:02.784Z,12.48
2018-07-11T01:12:30.462Z,12.33
2018-07-11T01:14:58.232Z,12.29
2018-07-11T01:17:31.593Z,12.29
2018-07-11T01:19:59.965Z,12.19
2018-07-11T01:22:27.652Z,12.12
2018-07-11T01:24:55.360Z,11.98
2018-07-11T01:27:23.102Z,11.87
2018-07-11T01:29:51.026Z,11.83
2018-07-11T01:32:18.751Z,11.71
2018-07-11T01:34:46.430Z,11.86
2018-07-11T01:37:14.125Z,11.77
2018-07-11T01:39:41.818Z,11.76
2018-07-11T01:42:09.811Z,11.68
2018-07-11T01:44:37.523Z,11.68
2018-07-11T01:47:05.270Z,11.56
2018-07-11T01:49:33.022Z,11.52
2018-07-11T01:52:06.390Z,11.52
2018-07-11T01:54:34.141Z,11.61
2018-07-11T01:57:02.090Z,11.60
2018-07-11T01:59:31.390Z,11.54
2018-07-11T02:01:59.132Z,11.57
2018-07-11T02:04:26.881Z,11.57
2018-07-11T02:06:54.929Z,11.58
2018-07-11T02:09:22.982Z,11.66
2018-07-11T02:11:50.705Z,11.66
2018-07-11T02:14:18.451Z,11.72
2018-07-11T02:16:46.191Z,11.72
2018-07-11T02:19:14.033Z,11.51
2018-07-11T02:21:41.867Z,11.40
2018-07-11T02:24:09.730Z,11.17
2018-07-11T02:26:37.479Z,11.25
2018-07-11T02:29:05.156Z,11.17
2018-07-11T02:31:33.280Z,11.16
2018-07-11T02:34:01.015Z,11.22
2018-07-11T02:36:28.727Z,11.35
2018-07-11T02:38:56.454Z,11.24
2018-07-11T02:41:24.212Z,11.21
2018-07-11T02:43:51.945Z,11.24
2018-07-11T02:46:24.245Z,11.12
2018-07-11T02:48:52.022Z,11.21
2018-07-11T02:51:20.083Z,11.16
2018-07-11T02:53:47.821Z,11.25
2018-07-11T02:56:15.568Z,11.20
2018-07-11T02:58:43.310Z,11.17
2018-07-11T03:01:10.994Z,11.27
2018-07-11T03:03:39.170Z,11.33
2018-07-11T03:06:06.826Z,11.41
2018-07-11T03:08:35.318Z,11.44
2018-07-11T03:11:03.770Z,11.46
2018-07-11T03:13:31.534Z,11.43
2018-07-11T03:15:59.260Z,11.47
2018-07-11T03:18:26.989Z,11.50
2018-07-11T03:20:54.760Z,11.54
2018-07-11T03:23:22.474Z,11.52
2018-07-11T03:25:50.826Z,11.45
2018-07-11T03:28:18.506Z,11.48
2018-07-11T03:30:46.202Z,11.43
2018-07-11T03:33:14.498Z,11.39
2018-07-11T03:35:42.394Z,11.37
2018-07-11T03:38:10.146Z,11.37
2018-07-11T03:40:37.813Z,11.41
2018-07-11T03:43:05.802Z,11.40
2018-07-11T03:45:33.550Z,11.43
2018-07-11T03:48:01.252Z,11.48
2018-07-11T03:50:28.929Z,11.51
2018-07-11T03:52:56.850Z,11.50
2018-07-11T03:55:24.516Z,11.50
2018-07-11T03:57:52.204Z,11.56
2018-07-11T04:00:19.979Z,11.57
2018-07-11T04:02:47.667Z,11.57
2018-07-11T04:05:15.367Z,11.56
2018-07-11T04:07:43.068Z,11.65
2018-07-11T04:10:10.726Z,11.77
2018-07-11T04:12:38.391Z,11.73
2018-07-11T04:15:06.098Z,11.83
2018-07-11T04:17:33.778Z,11.91
2018-07-11T04:20:01.484Z,11.95
2018-07-11T04:22:29.192Z,11.99
2018-07-11T04:24:57.362Z,12.06
2018-07-11T04:27:25.143Z,12.08
2018-07-11T04:29:52.921Z,12.16
2018-07-11T04:32:20.699Z,12.16
2018-07-11T04:34:48.462Z,12.16
2018-07-11T04:37:16.241Z,12.14
2018-07-11T04:39:44.007Z,12.18
2018-07-11T04:42:11.654Z,12.31
2018-07-11T04:44:39.418Z,12.35
2018-07-11T04:47:07.139Z,12.54
2018-07-11T04:49:34.859Z,12.59
2018-07-11T04:52:02.639Z,12.58
2018-07-11T04:54:30.425Z,12.64
2018-07-11T04:56:58.160Z,12.74
2018-07-11T04:59:25.916Z,12.86
2018-07-11T05:01:53.586Z,12.88
2018-07-11T05:04:21.290Z,12.92
2018-07-11T05:06:48.942Z,12.96
2018-07-11T05:09:16.906Z,13.12
2018-07-11T05:11:44.702Z,13.14
2018-07-11T05:14:12.407Z,13.18
2018-07-11T05:16:40.406Z,13.27
2018-07-11T05:19:08.094Z,13.34
2018-07-11T05:21:35.782Z,13.44
2018-07-11T05:24:03.760Z,13.42
2018-07-11T05:26:31.476Z,13.56
2018-07-11T05:28:59.130Z,13.64
2018-07-11T05:31:27.651Z,13.66
2018-07-11T05:33:56.508Z,13.64
2018-07-11T05:36:24.273Z,13.73
2018-07-11T05:38:51.970Z,13.81
2018-07-11T05:41:19.894Z,13.92
2018-07-11T05:43:47.550Z,14.00
2018-07-11T05:46:15.219Z,14.18
2018-07-11T05:48:44.210Z,14.27
2018-07-11T05:51:12.231Z,14.47
2018-07-11T05:53:39.954Z,14.58
2018-07-11T05:56:07.651Z,14.79
2018-07-11T05:58:36.382Z,14.82
2018-07-11T06:01:04.082Z,14.89
2018-07-11T06:03:31.737Z,14.98
2018-07-11T06:05:59.459Z,14.88
2018-07-11T06:08:27.486Z,15.08
2018-07-11T06:10:55.185Z,15.04
2018-07-11T06:13:22.931Z,14.96
2018-07-11T06:15:51.151Z,14.89
2018-07-11T06:18:19.424Z,14.89
2018-07-11T06:20:47.187Z,14.95
2018-07-11T06:23:15.235Z,15.16
2018-07-11T06:25:43.022Z,15.28
2018-07-11T06:28:10.703Z,15.28
2018-07-11T06:30:38.416Z,15.28
2018-07-11T06:33:06.148Z,15.23
2018-07-11T06:35:33.862Z,14.98
2018-07-11T06:38:01.600Z,15.11
2018-07-11T06:40:30.350Z,15.41
2018-07-11T06:42:58.106Z,15.38
2018-07-11T06:45:25.825Z,15.22
2018-07-11T06:47:53.558Z,15.20
2018-07-11T06:50:21.222Z,15.42
2018-07-11T06:52:48.919Z,15.58
2018-07-11T06:55:16.585Z,15.79
2018-07-11T06:57:44.252Z,15.83
2018-07-11T07:00:11.976Z,15.58
2018-07-11T07:02:39.922Z,15.65
2018-07-11T07:05:07.593Z,15.61
2018-07-11T07:07:35.295Z,15.91
2018-07-11T07:10:03.009Z,16.04
2018-07-11T07:12:30.714Z,16.02
2018-07-11T07:14:58.404Z,15.93
2018-07-11T07:17:26.087Z,15.93
2018-07-11T07:19:53.787Z,15.93
2018-07-11T07:22:21.483Z,15.93
2018-07-11T07:24:50.294Z,16.01
2018-07-11T07:27:17.988Z,16.08
2018-07-11T07:29:45.741Z,16.03
2018-07-11T07:32:13.521Z,15.99
2018-07-11T07:34:41.519Z,16.03
2018-07-11T07:37:09.244Z,16.19
2018-07-11T07:39:36.960Z,16.56
2018-07-11T07:42:04.668Z,16.55
2018-07-11T07:44:32.387Z,16.77
2018-07-11T07:47:00.950Z,16.81
2018-07-11T07:49:29.639Z,16.66
2018-07-11T07:51:57.870Z,16.59
2018-07-11T07:54:25.862Z,16.71
2018-07-11T07:56:53.650Z,17.88
2018-07-11T07:59:21.906Z,19.21
2018-07-11T08:01:49.902Z,19.96
2018-07-11T08:04:17.630Z,19.95
2018-07-11T08:06:45.466Z,20.07
2018-07-11T08:09:13.150Z,19.68
2018-07-11T08:11:40.950Z,19.31
2018-07-11T08:14:08.670Z,19.28
2018-07-11T08:16:36.354Z,18.62
2018-07-11T08:19:04.364Z,18.75
2018-07-11T08:21:32.109Z,18.75
2018-07-11T08:24:05.452Z,18.60
2018-07-11T08:26:38.853Z,18.75
2018-07-11T08:31:20.667Z,18.68
2018-07-11T08:35:58.476Z,18.05
2018-07-11T08:38:32.661Z,18.15
2018-07-11T08:41:08.499Z,18.19
2018-07-11T08:44:41.303Z,18.32
2018-07-11T08:49:23.062Z,18.48
2018-07-11T08:51:55.443Z,18.59
2018-07-11T08:55:31.102Z,18.57
2018-07-11T08:58:03.339Z,18.37
2018-07-11T09:01:05.016Z,18.17
2018-07-11T09:03:38.246Z,18.10
2018-07-11T09:08:14.333Z,17.98
2018-07-11T09:10:48.142Z,17.91
2018-07-11T09:13:22.297Z,17.87
2018-07-11T09:15:55.047Z,17.91
2018-07-11T09:18:27.918Z,18.05
2018-07-11T09:23:09.615Z,18.26
2018-07-11T09:25:37.301Z,18.28
2018-07-11T09:28:05.000Z,18.24
2018-07-11T09:30:32.813Z,18.39
2018-07-11T09:33:00.521Z,18.54
2018-07-11T09:35:28.256Z,18.82
2018-07-11T09:37:55.965Z,19.08
2018-07-11T09:40:23.701Z,19.22
2018-07-11T09:42:51.760Z,18.81
2018-07-11T09:45:19.602Z,18.87
2018-07-11T09:47:47.344Z,18.84
2018-07-11T09:50:15.338Z,18.65
2018-07-11T09:52:43.031Z,18.73
2018-07-11T09:55:10.701Z,18.85
2018-07-11T09:57:38.536Z,19.38
2018-07-11T10:00:06.672Z,19.69
2018-07-11T10:02:34.561Z,19.68
2018-07-11T10:05:02.388Z,19.85
2018-07-11T10:07:30.156Z,19.91
2018-07-11T10:09:57.925Z,19.71
2018-07-11T10:12:25.644Z,19.83
2018-07-11T10:14:53.382Z,19.69
2018-07-11T10:17:21.131Z,19.60
2018-07-11T10:19:48.861Z,19.72
2018-07-11T10:22:16.614Z,19.94
2018-07-11T10:24:44.367Z,20.00
2018-07-11T10:27:12.089Z,20.60
2018-07-11T10:29:39.815Z,21.04
2018-07-11T10:32:07.583Z,21.51
2018-07-11T10:34:35.385Z,21.66
2018-07-11T10:37:03.943Z,21.63
2018-07-11T10:39:31.629Z,21.31
2018-07-11T10:41:59.577Z,21.15
2018-07-11T10:44:27.275Z,21.07
2018-07-11T10:47:27.012Z,20.88
2018-07-11T10:49:54.749Z,21.08
2018-07-11T10:52:22.462Z,21.33
2018-07-11T10:54:50.199Z,21.60
2018-07-11T10:57:18.064Z,22.30
2018-07-11T10:59:45.808Z,22.19
2018-07-11T11:02:17.615Z,22.23
2018-07-11T11:04:45.377Z,22.09
2018-07-11T11:07:13.049Z,21.90
2018-07-11T11:09:40.840Z,21.80
2018-07-11T11:12:08.569Z,21.90
2018-07-11T11:14:36.342Z,21.57
2018-07-11T11:17:03.982Z,21.40
2018-07-11T11:19:31.707Z,20.90
2018-07-11T11:22:00.174Z,20.58
2018-07-11T11:24:27.958Z,20.67
2018-07-11T11:26:55.648Z,20.69
2018-07-11T11:29:23.396Z,20.95
2018-07-11T11:31:51.140Z,20.84
2018-07-11T11:34:19.273Z,21.18
2018-07-11T11:36:47.026Z,21.25
2018-07-11T11:39:14.683Z,21.58
2018-07-11T11:41:42.522Z,21.62
2018-07-11T11:44:10.182Z,21.96
2018-07-11T11:46:37.895Z,21.63
2018-07-11T11:49:05.616Z,21.38
2018-07-11T11:51:33.382Z,21.46
2018-07-11T11:54:01.075Z,21.65
2018-07-11T11:56:28.778Z,21.73
2018-07-11T11:58:56.525Z,21.51
2018-07-11T12:01:24.470Z,21.59
2018-07-11T12:03:52.233Z,21.43
2018-07-11T12:06:19.939Z,21.50
2018-07-11T12:08:47.684Z,21.43
2018-07-11T12:11:15.382Z,21.19
2018-07-11T12:13:43.106Z,21.21
2018-07-11T12:16:10.848Z,20.99
2018-07-11T12:18:38.562Z,20.89
2018-07-11T12:21:06.358Z,21.16
2018-07-11T12:23:34.034Z,20.91
2018-07-11T12:26:05.951Z,20.93
2018-07-11T12:28:33.730Z,20.93
2018-07-11T12:31:01.850Z,21.03
2018-07-11T12:33:29.628Z,21.40
2018-07-11T12:35:57.804Z,21.76
2018-07-11T12:38:25.561Z,21.88
2018-07-11T12:40:53.303Z,21.80
2018-07-11T12:43:21.071Z,22.09
2018-07-11T12:45:48.856Z,21.97
2018-07-11T12:48:22.500Z,21.85
2018-07-11T12:50:51.540Z,21.84
2018-07-11T12:53:19.386Z,21.82
2018-07-11T12:55:47.339Z,21.64
2018-07-11T12:58:16.054Z,21.49
2018-07-11T13:00:43.831Z,21.43
2018-07-11T13:03:11.654Z,21.48
2018-07-11T13:05:39.434Z,21.57
2018-07-11T13:08:07.214Z,21.72
2018-07-11T13:10:34.918Z,21.68
2018-07-11T13:13:02.675Z,21.92
2018-07-11T13:15:30.426Z,22.01
2018-07-11T13:17:58.223Z,21.79
2018-07-11T13:20:25.917Z,21.96
2018-07-11T13:22:53.620Z,21.80
2018-07-11T13:25:21.758Z,21.54
2018-07-11T13:27:49.522Z,21.21
2018-07-11T13:30:17.238Z,21.28
2018-07-11T13:32:45.044Z,21.09
2018-07-11T13:35:12.846Z,21.27
2018-07-11T13:37:40.557Z,21.36
2018-07-11T13:40:08.281Z,21.12
2018-07-11T13:42:36.289Z,20.90
2018-07-11T13:45:04.179Z,20.98
2018-07-11T13:47:31.903Z,21.06
2018-07-11T13:49:59.647Z,21.34
2018-07-11T13:52:27.517Z,21.38
2018-07-11T13:54:55.438Z,21.52
2018-07-11T13:57:23.530Z,21.60
2018-07-11T13:59:51.290Z,21.57
2018-07-11T14:02:19.180Z,21.63
2018-07-11T14:04:47.159Z,21.79
2018-07-11T14:07:14.891Z,21.76
2018-07-11T14:09:42.606Z,21.62
2018-07-11T14:12:10.414Z,21.41
2018-07-11T14:14:38.275Z,21.34
2018-07-11T14:17:06.194Z,21.56
2018-07-11T14:19:33.954Z,21.43
2018-07-11T14:22:02.063Z,21.68
2018-07-11T14:24:29.837Z,21.80
2018-07-11T14:26:57.655Z,21.68
2018-07-11T14:29:27.205Z,21.79
2018-07-11T14:31:55.935Z,21.90
2018-07-11T14:34:23.710Z,21.83
2018-07-11T14:36:52.297Z,21.71
2018-07-11T14:39:19.989Z,21.65
2018-07-11T14:41:47.771Z,21.67
2018-07-11T14:44:16.318Z,21.55
2018-07-11T14:46:44.082Z,21.22
2018-07-11T14:49:14.233Z,21.06
2018-07-11T14:51:42.035Z,20.99
2018-07-11T14:54:09.854Z,21.01
2018-07-11T14:56:37.613Z,20.85
2018-07-11T14:59:05.485Z,20.78
2018-07-11T15:01:33.270Z,20.87
2018-07-11T15:04:02.187Z,20.91
2018-07-11T15:06:29.887Z,20.99
2018-07-11T15:08:57.738Z,21.14
2018-07-11T15:11:25.330Z,21.15
2018-07-11T15:13:53.398Z,20.98
2018-07-11T15:16:21.096Z,20.77
2018-07-11T15:18:49.392Z,20.66
2018-07-11T15:21:17.510Z,20.81
2018-07-11T15:23:45.260Z,20.70
2018-07-11T15:26:13.002Z,20.61
2018-07-11T15:28:41.130Z,20.48
2018-07-11T15:31:08.868Z,20.50
2018-07-11T15:33:36.686Z,20.41
2018-07-11T15:36:04.491Z,20.45
2018-07-11T15:38:32.231Z,20.48
2018-07-11T15:41:00.690Z,20.50
2018-07-11T15:43:29.125Z,20.32
2018-07-11T15:45:57.301Z,20.41
2018-07-11T15:48:25.371Z,20.47
2018-07-11T15:50:53.564Z,20.63
2018-07-11T15:53:21.993Z,20.66
2018-07-11T15:55:50.214Z,20.75
2018-07-11T15:58:18.990Z,20.85
2018-07-11T16:00:47.119Z,20.91
2018-07-11T16:03:14.932Z,21.12
2018-07-11T16:05:44.102Z,21.09
2018-07-11T16:08:15.776Z,20.99
2018-07-11T16:10:48.311Z,21.04
2018-07-11T16:13:16.089Z,21.11
2018-07-11T16:15:44.518Z,21.02
2018-07-11T16:18:12.285Z,20.95
2018-07-11T16:20:40.111Z,20.70
2018-07-11T16:23:08.186Z,20.69
2018-07-11T16:25:36.683Z,20.68
2018-07-11T16:28:05.249Z,20.80
2018-07-11T16:30:33.006Z,20.67
2018-07-11T16:33:01.174Z,20.66
2018-07-11T16:35:28.970Z,20.63
2018-07-11T16:37:56.771Z,20.45
2018-07-11T16:40:24.871Z,20.26
2018-07-11T16:42:52.888Z,20.27
2018-07-11T16:45:21.151Z,20.27
2018-07-11T16:47:48.914Z,20.41
2018-07-11T16:50:17.279Z,20.38
2018-07-11T16:52:45.173Z,20.48
2018-07-11T16:55:12.983Z,20.49
2018-07-11T16:57:41.793Z,20.31
2018-07-11T17:00:10.011Z,20.13
2018-07-11T17:02:38.767Z,20.07
2018-07-11T17:05:07.722Z,20.11
2018-07-11T17:07:40.432Z,20.17
2018-07-11T17:10:08.276Z,20.20
2018-07-11T17:12:36.725Z,20.18
2018-07-11T17:15:04.510Z,20.20
2018-07-11T17:17:32.623Z,20.01
2018-07-11T17:20:03.104Z,20.15
2018-07-11T17:22:32.401Z,20.27
2018-07-11T17:25:01.407Z,20.13
2018-07-11T17:27:29.227Z,20.03
2018-07-11T17:30:00.028Z,20.04
2018-07-11T17:32:28.356Z,19.95
2018-07-11T17:34:56.107Z,19.99
2018-07-11T17:37:25.975Z,19.78
2018-07-11T17:39:56.882Z,19.66
2018-07-11T17:42:28.728Z,19.67
2018-07-11T17:45:07.593Z,19.62
2018-07-11T17:48:40.686Z,19.71
2018-07-11T17:51:16.936Z,19.61
2018-07-11T17:53:48.094Z,19.60
2018-07-11T17:56:15.876Z,19.67
2018-07-11T17:58:59.344Z,19.68
2018-07-11T18:01:32.643Z,19.59
2018-07-11T18:04:37.529Z,19.55
2018-07-11T18:07:07.002Z,19.64
2018-07-11T18:09:38.761Z,19.55
2018-07-11T18:12:10.894Z,19.38
2018-07-11T18:14:43.111Z,19.20
2018-07-11T18:17:12.431Z,19.25
2018-07-11T18:19:44.797Z,19.13
2018-07-11T18:22:20.404Z,19.09
2018-07-11T18:24:53.771Z,18.97
2018-07-11T18:28:24.853Z,19.00
2018-07-11T18:31:09.287Z,18.92
2018-07-11T18:35:45.361Z,18.85
2018-07-11T18:38:19.914Z,18.82
2018-07-11T18:40:55.170Z,18.83
2018-07-11T18:43:28.580Z,18.71
2018-07-11T18:46:00.684Z,18.60
2018-07-11T18:48:34.017Z,18.64
2018-07-11T18:51:06.326Z,18.61
2018-07-11T18:53:39.667Z,18.60
2018-07-11T18:56:12.617Z,18.57
2018-07-11T18:58:48.824Z,18.48
2018-07-11T19:03:28.913Z,18.38
2018-07-11T19:07:02.563Z,18.17
2018-07-11T19:09:36.105Z,18.01
2018-07-11T19:13:09.052Z,17.97
2018-07-11T19:15:39.294Z,17.91
2018-07-11T19:18:08.917Z,17.84
2018-07-11T19:20:37.061Z,17.79
2018-07-11T19:23:10.560Z,17.72
2018-07-11T19:27:47.226Z,17.61
2018-07-11T19:30:26.030Z,17.50
2018-07-11T19:33:01.298Z,17.41
2018-07-11T19:36:33.509Z,17.30
2018-07-11T19:39:05.825Z,17.15
2018-07-11T19:41:45.702Z,16.92
2018-07-11T19:44:19.044Z,16.98
2018-07-11T19:46:50.727Z,16.87
2018-07-11T19:49:21.407Z,16.88
2018-07-11T19:51:54.925Z,16.65
2018-07-11T19:55:29.581Z,16.28
2018-07-11T19:57:57.391Z,16.22
2018-07-11T20:00:25.161Z,16.04
2018-07-11T20:02:52.998Z,15.66
2018-07-11T20:05:20.787Z,15.71
2018-07-11T20:07:48.550Z,15.53
2018-07-11T20:10:16.539Z,15.62
2018-07-11T20:12:44.453Z,15.56
2018-07-11T20:15:12.183Z,15.48
2018-07-11T20:17:39.887Z,15.34
2018-07-11T20:20:07.602Z,15.17
2018-07-11T20:22:35.389Z,15.24
2018-07-11T20:25:03.344Z,15.23
2018-07-11T20:27:31.090Z,14.93
2018-07-11T20:29:58.828Z,14.83
2018-07-11T20:32:26.625Z,14.93
2018-07-11T20:34:54.380Z,15.05
2018-07-11T20:37:22.120Z,14.94
2018-07-11T20:39:49.868Z,14.94
2018-07-11T20:42:17.615Z,14.78
2018-07-11T20:44:45.420Z,14.79
2018-07-11T20:47:13.164Z,14.73
2018-07-11T20:49:40.940Z,14.45
2018-07-11T20:52:08.715Z,14.25
2018-07-11T20:54:37.158Z,14.11
2018-07-11T20:57:04.858Z,14.17
2018-07-11T20:59:38.155Z,14.30
2018-07-11T21:02:11.479Z,14.29
2018-07-11T21:05:16.646Z,14.34
2018-07-11T21:08:02.131Z,14.27
2018-07-11T21:12:42.564Z,14.34
2018-07-11T21:17:20.861Z,14.27
2018-07-11T21:19:48.597Z,13.71
2018-07-11T21:22:16.288Z,13.75
2018-07-11T21:24:44.006Z,13.72
2018-07-11T21:27:11.698Z,13.63
2018-07-11T21:29:39.356Z,13.72
2018-07-11T21:32:07.097Z,13.58
2018-07-11T21:34:34.803Z,13.55
2018-07-11T21:37:02.515Z,13.75
2018-07-11T21:39:30.213Z,13.86
2018-07-11T21:41:57.866Z,13.69
2018-07-11T21:44:25.565Z,13.43
2018-07-11T21:46:53.268Z,13.38
2018-07-11T21:49:20.921Z,13.35
2018-07-11T21:51:48.846Z,13.49
2018-07-11T21:54:16.622Z,13.59
2018-07-11T21:56:44.319Z,13.43
2018-07-11T21:59:12.030Z,13.11
2018-07-11T22:01:40.582Z,13.09
2018-07-11T22:04:09.591Z,13.10
2018-07-11T22:06:37.328Z,13.14
2018-07-11T22:09:05.303Z,13.02
2018-07-11T22:11:33.090Z,12.99
2018-07-11T22:14:00.746Z,13.10
2018-07-11T22:16:28.463Z,13.34
2018-07-11T22:18:56.111Z,13.17
2018-07-11T22:21:24.362Z,13.02
2018-07-11T22:23:51.358Z,12.79
2018-07-11T22:26:18.358Z,12.80
2018-07-11T22:28:45.384Z,12.64
2018-07-11T22:31:12.433Z,12.62
2018-07-11T22:33:39.462Z,12.66
2018-07-11T22:36:07.072Z,12.65
2018-07-11T22:38:34.057Z,12.81
2018-07-11T22:41:01.082Z,12.51
2018-07-11T22:43:28.138Z,12.51
2018-07-11T22:45:55.172Z,12.44
2018-07-11T22:48:22.219Z,12.54
2018-07-11T22:50:49.245Z,12.75
2018-07-11T22:53:16.288Z,12.79
2018-07-11T22:55:43.485Z,12.63
2018-07-11T22:58:10.498Z,12.42
2018-07-11T23:00:37.508Z,12.18
2018-07-11T23:03:04.538Z,12.24
2018-07-11T23:05:31.821Z,12.30
2018-07-11T23:07:58.835Z,12.27
2018-07-11T23:10:25.877Z,12.39
2018-07-11T23:12:52.927Z,12.29
2018-07-11T23:15:19.978Z,12.18
2018-07-11T23:17:47.327Z,12.29
2018-07-11T23:20:14.326Z,12.13
2018-07-11T23:22:41.356Z,12.09
2018-07-11T23:25:08.510Z,11.92
2018-07-11T23:27:35.525Z,12.01
2018-07-11T23:30:02.527Z,12.11
2018-07-11T23:32:29.543Z,11.92
2018-07-11T23:34:56.565Z,11.91
2018-07-11T23:37:23.612Z,11.84
2018-07-11T23:39:50.624Z,11.92
2018-07-11T23:42:17.634Z,11.79
2018-07-11T23:44:44.654Z,11.86
2018-07-11T23:47:11.650Z,11.74
2018-07-11T23:49:38.642Z,11.64
2018-07-11T23:52:05.662Z,11.63
2018-07-11T23:54:32.704Z,11.52
2018-07-11T23:56:59.734Z,11.66
2018-07-11T23:59:26.741Z,11.54
